Time;durP1;ratioP1;P1;durP2;ratioP2;P2;SDS_P1;SDS_P2;PMS_P1;PMS_P2;Temp;Humidity;BMP_temperature;BMP_pressure;BME280_temperature;BME280_humidity;BME280_pressure;Samples;Min_cycle;Max_cycle;Signal;HPM_P1;HPM_P2
2021/01/27 00:00:43;;;;;;;20.63;18.52;;;24.80;50.40;;;;;;5051297;28;20079;-60
2021/01/27 00:03:10;;;;;;;18.67;16.80;;;24.90;50.40;;;;;;5071461;28;20111;-60
2021/01/27 00:05:41;;;;;;;18.45;16.65;;;24.90;50.50;;;;;;5053615;28;20746;-59
2021/01/27 00:08:08;;;;;;;19.17;17.27;;;24.80;50.50;;;;;;5071164;28;20028;-59
2021/01/27 00:10:35;;;;;;;19.13;17.23;;;24.80;50.40;;;;;;5071720;28;20409;-59
2021/01/27 00:13:03;;;;;;;18.98;17.17;;;24.80;50.50;;;;;;5071914;28;20020;-60
2021/01/27 00:15:35;;;;;;;18.13;16.33;;;24.80;50.50;;;;;;5071572;28;20024;-59
2021/01/27 00:18:03;;;;;;;16.58;14.88;;;24.80;50.50;;;;;;5071597;28;20055;-59
2021/01/27 00:20:29;;;;;;;16.00;14.40;;;24.80;50.50;;;;;;5053341;28;20157;-60
2021/01/27 00:22:55;;;;;;;15.95;13.98;;;24.80;51.20;;;;;;5072263;28;20028;-60
2021/01/27 00:25:25;;;;;;;13.95;12.60;;;24.80;50.60;;;;;;5072765;28;20114;-60
2021/01/27 00:27:51;;;;;;;15.32;13.80;;;24.80;50.60;;;;;;5072394;28;20545;-60
2021/01/27 00:30:21;;;;;;;13.82;12.43;;;24.80;50.60;;;;;;5072822;28;20104;-59
2021/01/27 00:32:48;;;;;;;11.98;10.77;;;24.70;50.60;;;;;;5072043;28;20117;-60
2021/01/27 00:35:16;;;;;;;12.63;11.35;;;24.80;50.60;;;;;;5072035;28;20539;-60
2021/01/27 00:37:42;;;;;;;11.55;10.45;;;24.80;50.70;;;;;;5071835;28;20493;-60
2021/01/27 00:40:09;;;;;;;10.93;9.93;;;24.60;50.60;;;;;;5040020;28;20033;-60
2021/01/27 00:42:35;;;;;;;11.35;10.25;;;24.80;50.70;;;;;;5052500;28;20029;-59
2021/01/27 00:45:03;;;;;;;10.73;9.65;;;24.80;50.70;;;;;;5065421;28;20028;-59
2021/01/27 00:47:28;;;;;;;9.55;8.63;;;24.70;50.70;;;;;;5072140;28;20037;-59
2021/01/27 00:49:55;;;;;;;10.15;9.15;;;24.70;50.70;;;;;;5071301;28;20040;-60
2021/01/27 00:52:23;;;;;;;10.88;9.77;;;24.70;50.70;;;;;;5054485;28;20050;-60
2021/01/27 00:54:49;;;;;;;10.32;9.30;;;24.70;50.70;;;;;;5044840;28;20031;-60
2021/01/27 00:57:15;;;;;;;10.00;9.00;;;24.70;50.70;;;;;;5049872;28;20029;-60
2021/01/27 00:59:41;;;;;;;9.32;8.43;;;24.70;50.70;;;;;;5048410;28;20033;-60
2021/01/27 01:02:07;;;;;;;9.07;8.18;;;24.70;50.80;;;;;;5067551;28;20024;-60
2021/01/27 01:04:43;;;;;;;8.95;8.05;;;24.70;50.80;;;;;;5071487;28;20453;-60
2021/01/27 01:07:09;;;;;;;8.15;7.35;;;24.70;50.80;;;;;;5071865;28;20111;-60
2021/01/27 01:09:35;;;;;;;8.05;7.35;;;24.70;50.90;;;;;;5050085;28;20029;-60
2021/01/27 01:12:01;;;;;;;8.73;7.82;;;24.70;50.90;;;;;;5063287;28;20028;-60
2021/01/27 01:14:27;;;;;;;7.78;7.05;;;24.70;50.80;;;;;;5072142;28;20100;-60
2021/01/27 01:16:53;;;;;;;7.70;7.00;;;24.70;50.90;;;;;;5070955;28;20036;-60
2021/01/27 01:19:19;;;;;;;7.90;7.10;;;24.70;50.90;;;;;;5072079;28;20029;-60
2021/01/27 01:21:45;;;;;;;6.57;5.97;;;24.70;50.80;;;;;;5071392;28;20027;-60
2021/01/27 01:24:11;;;;;;;7.50;6.80;;;24.70;50.90;;;;;;5052509;28;20466;-60
2021/01/27 01:26:37;;;;;;;6.47;5.88;;;24.60;50.80;;;;;;5071523;28;20047;-60
2021/01/27 01:29:03;;;;;;;7.20;6.30;;;24.60;50.80;;;;;;5052759;28;20043;-60
2021/01/27 01:31:29;;;;;;;7.47;6.78;;;24.60;50.90;;;;;;5071858;28;20115;-60
2021/01/27 01:33:55;;;;;;;6.70;6.10;;;24.60;50.90;;;;;;5071766;28;20048;-58
2021/01/27 01:36:21;;;;;;;7.40;6.70;;;24.60;50.90;;;;;;5071750;28;20024;-59
2021/01/27 01:38:47;;;;;;;6.20;5.60;;;24.60;50.90;;;;;;5071411;28;20374;-59
2021/01/27 01:41:13;;;;;;;5.68;5.18;;;24.60;50.90;;;;;;5053588;28;20029;-58
2021/01/27 01:43:41;;;;;;;5.80;5.13;;;24.60;50.90;;;;;;5071333;28;20381;-59
2021/01/27 01:46:10;;;;;;;6.57;5.82;;;24.60;50.90;;;;;;5053244;28;20023;-58
2021/01/27 01:48:47;;;;;;;6.40;5.80;;;24.60;51.00;;;;;;5070932;28;20051;-58
2021/01/27 01:51:32;;;;;;;5.97;5.45;;;24.60;51.00;;;;;;5044556;28;20029;-58
2021/01/27 01:54:08;;;;;;;5.65;5.15;;;24.50;50.90;;;;;;5053672;28;20037;-59
2021/01/27 01:56:37;;;;;;;5.63;5.13;;;24.60;51.00;;;;;;5053201;28;20043;-58
2021/01/27 01:59:06;;;;;;;5.82;5.18;;;24.60;51.00;;;;;;5070965;28;20017;-58
2021/01/27 02:01:33;;;;;;;4.90;4.50;;;24.50;50.90;;;;;;5070908;28;20025;-58
2021/01/27 02:03:59;;;;;;;4.47;4.07;;;24.60;51.00;;;;;;5070980;28;20028;-58
2021/01/27 02:06:25;;;;;;;4.80;4.35;;;24.60;51.00;;;;;;5071487;28;20136;-59
2021/01/27 02:08:58;;;;;;;5.05;4.65;;;24.60;51.10;;;;;;5053347;28;20055;-58
2021/01/27 02:12:02;;;;;;;4.30;3.90;;;24.60;51.10;;;;;;5071388;28;20052;-58
2021/01/27 02:14:43;;;;;;;4.35;3.95;;;24.60;51.10;;;;;;5070841;28;20021;-58
2021/01/27 02:17:15;;;;;;;4.18;3.80;;;24.50;51.00;;;;;;5071236;28;20033;-58
2021/01/27 02:20:18;;;;;;;3.50;3.20;;;24.50;51.00;;;;;;5071270;28;20040;-59
2021/01/27 02:23:02;;;;;;;3.50;3.20;;;24.50;51.00;;;;;;5071369;28;20774;-58
2021/01/27 02:25:34;;;;;;;4.13;3.72;;;24.50;51.00;;;;;;5070539;28;20029;-59
2021/01/27 02:28:15;;;;;;;4.20;3.40;;;24.60;51.10;;;;;;5068805;28;20029;-59
2021/01/27 02:31:24;;;;;;;3.83;3.47;;;24.50;51.10;;;;;;5074721;28;20377;-58
2021/01/27 02:34:10;;;;;;;3.30;3.00;;;24.50;51.20;;;;;;5037307;28;20037;-59
2021/01/27 02:37:05;;;;;;;3.35;3.05;;;24.50;51.20;;;;;;5037122;28;20033;-59
2021/01/27 02:39:43;;;;;;;3.35;2.83;;;24.50;51.10;;;;;;5059925;28;20041;-58
2021/01/27 02:42:29;;;;;;;3.55;3.20;;;24.50;51.10;;;;;;5074524;28;20555;-59
2021/01/27 02:45:04;;;;;;;3.30;3.03;;;24.50;51.20;;;;;;5052954;28;20045;-58
2021/01/27 02:47:57;;;;;;;3.92;3.10;;;24.50;51.10;;;;;;5036788;28;20112;-58
2021/01/27 02:50:52;;;;;;;2.72;2.53;;;24.50;51.10;;;;;;5070757;28;20827;-58
2021/01/27 02:53:32;;;;;;;3.30;3.00;;;24.50;51.10;;;;;;5073996;28;20040;-58
2021/01/27 02:56:28;;;;;;;3.20;2.90;;;24.50;51.10;;;;;;5074899;28;20056;-58
2021/01/27 02:59:26;;;;;;;3.20;2.50;;;24.50;51.30;;;;;;5074283;28;20032;-58
2021/01/27 03:02:28;;;;;;;2.80;2.60;;;24.50;51.20;;;;;;5056304;28;20024;-58
2021/01/27 03:04:59;;;;;;;2.53;2.33;;;24.40;51.10;;;;;;4991412;28;20496;-58
2021/01/27 03:07:35;;;;;;;4.32;3.40;;;24.50;51.10;;;;;;4992849;28;20046;-58
2021/01/27 03:10:14;;;;;;;3.10;2.80;;;24.50;51.20;;;;;;4987391;28;20030;-59
2021/01/27 03:12:40;;;;;;;2.90;2.70;;;24.50;51.20;;;;;;4956976;28;20055;-58
2021/01/27 03:15:11;;;;;;;2.40;2.20;;;24.50;51.10;;;;;;4973038;28;20046;-58
2021/01/27 03:17:57;;;;;;;2.80;2.53;;;24.50;51.20;;;;;;4957084;28;20046;-61
2021/01/27 03:20:28;;;;;;;2.63;2.42;;;24.50;51.20;;;;;;4962807;28;20042;-58
2021/01/27 03:23:15;;;;;;;3.08;2.78;;;24.50;51.20;;;;;;4975971;28;20042;-58
2021/01/27 03:26:00;;;;;;;2.70;2.50;;;24.40;51.20;;;;;;4975803;28;20396;-58
2021/01/27 03:28:31;;;;;;;2.50;2.30;;;24.40;51.20;;;;;;4974337;28;20057;-59
2021/01/27 03:30:57;;;;;;;2.97;2.78;;;24.50;51.20;;;;;;4977368;28;20041;-59
2021/01/27 03:33:40;;;;;;;3.00;2.08;;;24.40;51.20;;;;;;4989269;28;20392;-59
2021/01/27 03:36:14;;;;;;;2.30;2.10;;;24.40;51.20;;;;;;5063660;28;20045;-59
2021/01/27 03:38:50;;;;;;;2.90;2.60;;;24.50;51.30;;;;;;5073339;28;20033;-59
2021/01/27 03:41:21;;;;;;;4.22;2.55;;;24.40;51.20;;;;;;5052074;28;20033;-59
2021/01/27 03:44:11;;;;;;;2.28;2.08;;;24.50;51.20;;;;;;5051379;28;20105;-59
2021/01/27 03:46:47;;;;;;;2.53;2.10;;;24.40;51.20;;;;;;5073409;28;20078;-59
2021/01/27 03:49:34;;;;;;;2.00;1.80;;;24.50;51.20;;;;;;5051738;28;20529;-59
2021/01/27 03:52:09;;;;;;;2.30;2.10;;;24.40;51.20;;;;;;5052740;28;20033;-59
2021/01/27 03:54:51;;;;;;;2.67;1.90;;;24.40;51.20;;;;;;5051442;28;20087;-59
2021/01/27 03:57:22;;;;;;;2.30;2.10;;;24.40;51.20;;;;;;5048107;28;20048;-59
2021/01/27 03:59:59;;;;;;;2.05;1.90;;;24.40;51.20;;;;;;5033549;28;20387;-59
2021/01/27 04:02:49;;;;;;;1.70;1.60;;;24.40;51.20;;;;;;5052383;28;20065;-59
2021/01/27 04:05:15;;;;;;;1.60;1.50;;;24.40;51.20;;;;;;5030257;28;20510;-60
2021/01/27 04:07:48;;;;;;;1.67;1.58;;;24.40;51.20;;;;;;5030594;28;20042;-59
2021/01/27 04:10:16;;;;;;;;;;;24.40;51.30;;;;;;5030059;28;20069;-59
2021/01/27 04:12:42;;;;;;;1.92;1.80;;;24.40;51.30;;;;;;5003496;28;20000;-54
2021/01/27 04:15:08;;;;;;;1.65;1.50;;;24.50;51.10;;;;;;5008386;28;20037;-54
2021/01/27 04:17:35;;;;;;;2.78;1.75;;;24.40;51.10;;;;;;5030959;28;20608;-55
2021/01/27 04:20:00;;;;;;;1.67;1.58;;;24.50;51.20;;;;;;5031272;28;20077;-53
2021/01/27 04:22:26;;;;;;;3.55;1.70;;;24.40;51.30;;;;;;5015423;28;20117;-54
2021/01/27 04:24:52;;;;;;;1.90;1.50;;;24.40;51.30;;;;;;5031884;28;20966;-54
2021/01/27 04:27:19;;;;;;;1.60;1.50;;;24.40;51.30;;;;;;5032013;28;20041;-54
2021/01/27 04:29:45;;;;;;;2.17;1.95;;;24.40;51.30;;;;;;5031403;28;20057;-54
2021/01/27 04:32:11;;;;;;;2.03;1.83;;;24.30;51.30;;;;;;5030961;28;20033;-53
2021/01/27 04:34:37;;;;;;;2.15;2.03;;;24.40;51.30;;;;;;5031515;28;20044;-54
2021/01/27 04:37:04;;;;;;;1.67;1.48;;;24.40;51.40;;;;;;5033152;28;20041;-54
2021/01/27 04:39:30;;;;;;;1.77;1.67;;;24.40;51.40;;;;;;5041778;28;20071;-54
2021/01/27 04:41:56;;;;;;;1.42;1.33;;;24.40;51.40;;;;;;5053636;28;20029;-54
2021/01/27 04:44:23;;;;;;;1.80;1.65;;;24.40;51.40;;;;;;5048703;28;20029;-53
2021/01/27 04:47:14;;;;;;;4.00;1.40;;;24.30;51.40;;;;;;5039689;28;20371;-54
2021/01/27 04:50:03;;;;;;;1.48;1.20;;;24.30;51.40;;;;;;4999801;28;20050;-53
2021/01/27 04:52:44;;;;;;;1.33;1.23;;;24.30;51.40;;;;;;5052063;28;20039;-53
2021/01/27 04:55:32;;;;;;;1.30;1.20;;;24.40;51.50;;;;;;5048610;28;20029;-54
2021/01/27 04:58:16;;;;;;;1.38;1.10;;;24.30;51.50;;;;;;5033400;28;20470;-54
2021/01/27 05:00:44;;;;;;;1.13;1.00;;;24.30;51.50;;;;;;5051881;28;20382;-54
2021/01/27 05:03:29;;;;;;;1.10;1.00;;;24.40;51.50;;;;;;5051609;28;20036;-54
2021/01/27 05:05:59;;;;;;;1.33;1.23;;;24.30;51.50;;;;;;5033237;28;20448;-54
2021/01/27 05:08:36;;;;;;;1.55;0.90;;;24.30;51.60;;;;;;5036419;28;20470;-59
2021/01/27 05:11:08;;;;;;;0.85;0.85;;;24.30;51.70;;;;;;5052321;28;20075;-59
2021/01/27 05:13:37;;;;;;;1.25;0.80;;;24.30;51.60;;;;;;5051457;28;20033;-59
2021/01/27 05:16:17;;;;;;;0.93;0.75;;;24.30;51.60;;;;;;5051942;28;20021;-59
2021/01/27 05:18:43;;;;;;;0.98;0.80;;;24.30;51.70;;;;;;5046351;28;20079;-59
2021/01/27 05:21:29;;;;;;;1.10;1.00;;;24.30;51.70;;;;;;5046944;28;20035;-60
2021/01/27 05:23:57;;;;;;;1.58;1.10;;;24.30;51.70;;;;;;5051230;28;20087;-59
2021/01/27 05:26:32;;;;;;;0.93;0.80;;;24.30;51.70;;;;;;5050286;28;20033;-58
2021/01/27 05:29:08;;;;;;;1.20;1.02;;;24.30;51.70;;;;;;5051353;28;20029;-59
2021/01/27 05:32:12;;;;;;;0.82;0.82;;;24.30;51.80;;;;;;5051744;28;20501;-59
2021/01/27 05:34:53;;;;;;;0.85;0.75;;;24.30;51.80;;;;;;5048567;28;20037;-60
2021/01/27 05:37:28;;;;;;;0.70;0.63;;;24.30;51.80;;;;;;5049805;28;20033;-59
2021/01/27 05:40:36;;;;;;;1.13;0.70;;;24.30;51.80;;;;;;5050253;28;20090;-54
2021/01/27 05:43:18;;;;;;;0.75;0.75;;;24.30;51.90;;;;;;4970985;28;20039;-54
2021/01/27 05:45:46;;;;;;;0.95;0.57;;;24.30;51.80;;;;;;4977013;28;20054;-60
2021/01/27 05:48:32;;;;;;;0.68;0.65;;;24.30;51.80;;;;;;4990269;28;20042;-59
2021/01/27 05:51:06;;;;;;;0.73;0.60;;;24.30;51.90;;;;;;4973005;28;20211;-59
2021/01/27 05:53:34;;;;;;;1.02;0.75;;;24.30;51.90;;;;;;4973742;28;20101;-60
2021/01/27 05:56:09;;;;;;;0.73;0.70;;;24.30;51.90;;;;;;4973825;28;20125;-59
2021/01/27 05:58:41;;;;;;;0.85;0.70;;;24.30;51.90;;;;;;4957507;28;20034;-59
2021/01/27 06:01:33;;;;;;;0.60;0.60;;;24.20;51.90;;;;;;4989462;28;20045;-60
2021/01/27 06:04:11;;;;;;;0.73;0.70;;;24.20;51.90;;;;;;4992076;28;20046;-60
2021/01/27 06:06:42;;;;;;;1.10;0.70;;;24.20;51.90;;;;;;4977454;28;20046;-60
2021/01/27 06:09:08;;;;;;;0.98;0.70;;;24.20;51.90;;;;;;4993161;28;20033;-59
2021/01/27 06:11:34;;;;;;;1.48;0.60;;;24.30;51.90;;;;;;4993959;28;20121;-59
2021/01/27 06:14:16;;;;;;;0.63;0.63;;;24.30;51.90;;;;;;4993594;28;20130;-59
2021/01/27 06:16:45;;;;;;;0.80;0.68;;;24.20;51.90;;;;;;5019772;28;20045;-60
2021/01/27 06:19:13;;;;;;;0.77;0.77;;;24.20;51.90;;;;;;5054906;28;20505;-59
2021/01/27 06:22:03;;;;;;;1.40;0.65;;;24.30;51.90;;;;;;5054842;28;20029;-59
2021/01/27 06:24:47;;;;;;;0.80;0.80;;;24.20;51.90;;;;;;5054884;28;20062;-59
2021/01/27 06:27:31;;;;;;;0.60;0.60;;;24.20;51.90;;;;;;5053856;28;20478;-60
2021/01/27 06:30:16;;;;;;;0.60;0.50;;;24.20;51.90;;;;;;5055053;28;20056;-59
2021/01/27 06:33:10;;;;;;;2.08;0.47;;;24.20;51.90;;;;;;5053289;28;20047;-59
2021/01/27 06:36:00;;;;;;;1.38;0.80;;;24.20;51.90;;;;;;5042681;28;20386;-59
2021/01/27 06:38:57;;;;;;;0.50;0.50;;;24.20;51.90;;;;;;5054412;28;20021;-60
2021/01/27 06:41:54;;;;;;;0.82;0.60;;;24.20;51.90;;;;;;5054544;28;20031;-59
2021/01/27 06:44:55;;;;;;;0.90;0.50;;;24.20;51.90;;;;;;5054920;28;20017;-59
2021/01/27 06:47:24;;;;;;;0.63;0.60;;;24.20;51.90;;;;;;5053708;28;20144;-59
2021/01/27 06:50:02;;;;;;;0.70;0.60;;;24.20;51.80;;;;;;5051545;28;20057;-60
2021/01/27 06:53:05;;;;;;;1.13;0.60;;;24.20;51.90;;;;;;5053932;28;20395;-59
2021/01/27 06:55:49;;;;;;;1.58;1.48;;;24.20;51.90;;;;;;5052432;28;20028;-59
2021/01/27 06:58:33;;;;;;;3.60;3.30;;;24.20;51.90;;;;;;5052464;28;20082;-59
2021/01/27 07:01:26;;;;;;;7.82;6.38;;;24.20;51.90;;;;;;5053800;28;20561;-58
2021/01/27 07:04:15;;;;;;;8.43;7.72;;;24.20;52.00;;;;;;5032496;28;20487;-59
2021/01/27 07:07:03;;;;;;;11.82;10.73;;;24.20;52.00;;;;;;5046691;28;20052;-59
2021/01/27 07:09:53;;;;;;;14.75;13.25;;;24.20;52.00;;;;;;5065698;28;20030;-59
2021/01/27 07:12:30;;;;;;;;;;;24.20;52.00;;;;;;5050674;28;20128;-58
2021/01/27 07:15:10;;;;;;;13.07;11.82;;;24.20;52.00;;;;;;5050942;28;20019;-59
2021/01/27 07:18:14;;;;;;;12.88;11.68;;;24.20;51.90;;;;;;5051872;28;20029;-59
2021/01/27 07:20:48;;;;;;;10.73;9.77;;;24.20;51.90;;;;;;5052830;28;20043;-59
2021/01/27 07:23:24;;;;;;;55.28;49.28;;;24.20;52.00;;;;;;5053702;28;20471;-64
2021/01/27 07:26:07;;;;;;;45.15;40.70;;;24.20;52.20;;;;;;5053764;28;20108;-60
2021/01/27 07:28:42;;;;;;;11.43;10.23;;;24.20;52.50;;;;;;5049106;28;20041;-58
2021/01/27 07:31:19;;;;;;;39.85;35.88;;;24.10;52.70;;;;;;5051986;28;20025;-67
2021/01/27 07:34:17;;;;;;;57.03;51.33;;;24.00;52.80;;;;;;5054061;28;20029;-60
2021/01/27 07:36:46;;;;;;;34.53;31.10;;;24.00;52.80;;;;;;5052940;28;20041;-66
2021/01/27 07:39:18;;;;;;;13.02;11.82;;;24.00;52.90;;;;;;5053475;28;20027;-61
2021/01/27 07:42:03;;;;;;;7.15;5.80;;;24.00;53.00;;;;;;5052539;28;20094;-63
2021/01/27 07:44:32;;;;;;;24.65;22.30;;;24.00;53.20;;;;;;5053496;28;20505;-67
2021/01/27 07:47:07;;;;;;;31.42;28.38;;;24.00;53.20;;;;;;5047702;28;20112;-64
2021/01/27 07:49:41;;;;;;;14.13;12.52;;;24.00;53.20;;;;;;5048354;28;20033;-54
2021/01/27 07:52:17;;;;;;;11.45;10.30;;;24.00;53.30;;;;;;5050885;28;20055;-54
2021/01/27 07:54:52;;;;;;;6.85;5.47;;;24.00;53.30;;;;;;5051101;28;20025;-55
2021/01/27 07:57:31;;;;;;;11.55;10.45;;;24.00;53.20;;;;;;5052602;28;20047;-56
2021/01/27 08:00:10;;;;;;;45.72;40.97;;;24.00;53.30;;;;;;5053789;28;20039;-54
2021/01/27 08:03:04;;;;;;;31.00;28.10;;;23.90;53.20;;;;;;5054305;28;20045;-54
2021/01/27 08:05:39;;;;;;;15.57;13.98;;;24.00;53.20;;;;;;5051570;28;20052;-54
2021/01/27 08:08:11;;;;;;;11.88;10.75;;;24.00;53.20;;;;;;5054037;28;20041;-54
2021/01/27 08:10:38;;;;;;;10.25;9.35;;;24.00;53.10;;;;;;5053102;28;20033;-54
2021/01/27 08:13:17;;;;;;;9.32;8.43;;;24.00;53.10;;;;;;5052916;28;20406;-54
2021/01/27 08:16:00;;;;;;;8.95;7.88;;;24.00;53.10;;;;;;5053314;28;20039;-54
2021/01/27 08:18:26;;;;;;;7.38;6.68;;;24.00;53.20;;;;;;5052345;28;20068;-54
2021/01/27 08:21:26;;;;;;;3.55;3.25;;;24.00;53.10;;;;;;5048090;28;20491;-54
2021/01/27 08:23:52;;;;;;;6.00;3.38;;;24.00;53.20;;;;;;5039736;28;20063;-54
2021/01/27 08:26:43;;;;;;;2.20;1.90;;;24.00;53.10;;;;;;5047864;28;20450;-55
2021/01/27 08:29:11;;;;;;;3.33;2.58;;;24.00;53.20;;;;;;5033723;28;20091;-55
2021/01/27 08:31:38;;;;;;;2.90;2.60;;;24.00;53.20;;;;;;5046129;28;20828;-54
2021/01/27 08:34:04;;;;;;;5.90;2.50;;;24.00;53.30;;;;;;5053348;28;20029;-62
2021/01/27 08:36:33;;;;;;;2.88;2.13;;;23.90;53.30;;;;;;5051270;28;20048;-65
2021/01/27 08:39:00;;;;;;;2.13;1.58;;;23.90;53.30;;;;;;5051956;28;20035;-64
2021/01/27 08:41:50;;;;;;;1.30;1.20;;;24.00;53.30;;;;;;5034534;28;20029;-63
2021/01/27 08:44:19;;;;;;;2.58;1.33;;;23.90;53.30;;;;;;5051093;28;20383;-63
2021/01/27 08:46:50;;;;;;;1.35;1.10;;;23.90;53.30;;;;;;5050992;28;20035;-63
2021/01/27 08:49:37;;;;;;;44.80;40.25;;;23.90;53.90;;;;;;5055847;28;20072;-66
2021/01/27 08:52:11;;;;;;;37.08;32.85;;;23.90;53.30;;;;;;5067827;28;20087;-66
2021/01/27 08:54:44;;;;;;;21.98;19.77;;;23.90;53.40;;;;;;5052696;28;20055;-67
2021/01/27 08:57:15;;;;;;;10.30;9.32;;;23.90;53.30;;;;;;5058318;28;20577;-67
2021/01/27 08:59:50;;;;;;;5.70;3.38;;;23.90;53.40;;;;;;5033726;28;20048;-66
2021/01/27 09:02:47;;;;;;;5.38;2.97;;;23.90;53.50;;;;;;5051686;28;20039;-67
2021/01/27 09:05:25;;;;;;;2.97;2.13;;;23.90;53.40;;;;;;5051652;28;20029;-65
2021/01/27 09:07:52;;;;;;;3.90;2.08;;;24.00;53.50;;;;;;5051636;28;20387;-63
2021/01/27 09:10:21;;;;;;;3.60;1.67;;;24.00;53.60;;;;;;5033805;28;20029;-70
2021/01/27 09:12:48;;;;;;;6.82;1.63;;;24.00;53.50;;;;;;5051257;28;20049;-64
2021/01/27 09:15:34;;;;;;;1.60;1.50;;;24.00;53.50;;;;;;5051531;28;20390;-59
2021/01/27 09:18:03;;;;;;;3.58;1.50;;;24.00;53.50;;;;;;5033431;28;20041;-56
2021/01/27 09:20:31;;;;;;;3.90;1.48;;;24.10;53.60;;;;;;5033560;28;20079;-60
2021/01/27 09:22:59;;;;;;;4.20;1.80;;;24.10;53.60;;;;;;5033313;28;20021;-63
2021/01/27 09:25:27;;;;;;;12.57;2.13;;;24.10;53.60;;;;;;5034499;28;20079;-63
2021/01/27 09:28:19;;;;;;;3.22;1.33;;;24.10;53.60;;;;;;5014350;28;20053;-64
2021/01/27 09:30:45;;;;;;;5.05;2.08;;;24.10;53.60;;;;;;5052370;28;20093;-64
2021/01/27 09:33:34;;;;;;;2.22;1.55;;;24.10;53.60;;;;;;5051046;28;20021;-67
2021/01/27 09:36:11;;;;;;;1.83;1.60;;;24.10;53.70;;;;;;5049661;28;20029;-60
2021/01/27 09:38:37;;;;;;;2.38;1.90;;;24.10;53.70;;;;;;5033708;28;20036;-60
2021/01/27 09:41:11;;;;;;;25.73;23.05;;;24.20;53.70;;;;;;5033412;28;20389;-59
2021/01/27 09:43:46;;;;;;;31.40;28.13;;;24.10;53.70;;;;;;5033568;28;20112;-60
2021/01/27 09:46:34;;;;;;;15.63;14.13;;;24.20;53.80;;;;;;5051074;28;20108;-59
2021/01/27 09:49:12;;;;;;;14.30;12.80;;;24.20;53.70;;;;;;5021386;28;20094;-60
2021/01/27 09:51:47;;;;;;;16.30;14.73;;;24.20;53.50;;;;;;5051085;28;20068;-60
2021/01/27 09:54:14;;;;;;;10.65;9.63;;;24.20;53.30;;;;;;5068591;28;20140;-52
2021/01/27 09:56:40;;;;;;;13.30;6.50;;;24.30;53.10;;;;;;5053751;28;20036;-55
2021/01/27 09:59:07;;;;;;;11.10;6.13;;;24.30;53.00;;;;;;5052917;28;20044;-55
2021/01/27 10:01:43;;;;;;;4.65;2.92;;;24.40;53.00;;;;;;5071019;28;20068;-55
2021/01/27 10:04:28;;;;;;;6.72;1.70;;;24.40;52.90;;;;;;5050844;28;20029;-55
2021/01/27 10:07:04;;;;;;;2.90;1.70;;;24.40;52.60;;;;;;5068419;28;20394;-55
2021/01/27 10:09:38;;;;;;;6.28;2.33;;;24.50;52.60;;;;;;5050760;28;20451;-58
2021/01/27 10:12:12;;;;;;;4.90;2.40;;;24.60;52.40;;;;;;5051060;28;20037;-57
2021/01/27 10:14:40;;;;;;;7.60;2.90;;;24.60;52.80;;;;;;5050798;28;20104;-56
2021/01/27 10:17:09;;;;;;;5.00;1.38;;;24.70;52.80;;;;;;5046412;28;20111;-57
2021/01/27 10:19:51;;;;;;;2.35;1.08;;;24.70;51.90;;;;;;5070410;28;20028;-55
2021/01/27 10:22:33;;;;;;;4.05;1.30;;;24.70;51.80;;;;;;5070106;28;20122;-56
2021/01/27 10:25:03;;;;;;;3.05;1.58;;;24.70;51.70;;;;;;5069959;28;20044;-57
2021/01/27 10:27:35;;;;;;;1.88;1.40;;;24.80;51.70;;;;;;5033627;28;20127;-56
2021/01/27 10:30:07;;;;;;;2.22;1.73;;;24.80;51.50;;;;;;5070214;28;20374;-56
2021/01/27 10:32:39;;;;;;;2.55;1.60;;;24.90;51.70;;;;;;5068145;28;20032;-56
2021/01/27 10:35:23;;;;;;;2.90;1.70;;;24.90;51.60;;;;;;5046610;28;20116;-56
2021/01/27 10:37:49;;;;;;;2.10;1.20;;;24.90;51.60;;;;;;5069708;28;20443;-55
2021/01/27 10:40:28;;;;;;;1.45;1.35;;;25.00;51.80;;;;;;5035618;28;20021;-55
2021/01/27 10:42:59;;;;;;;2.83;2.17;;;25.10;51.30;;;;;;5052758;28;20117;-56
2021/01/27 10:45:27;;;;;;;;;;;25.30;51.40;;;;;;5070898;28;20465;-55
2021/01/27 10:47:58;;;;;;;2.80;2.38;;;25.40;51.80;;;;;;5070516;28;19912;-55
2021/01/27 10:50:26;;;;;;;5.50;4.10;;;25.50;51.00;;;;;;5055549;28;20072;-55
2021/01/27 10:52:53;;;;;;;6.07;3.17;;;25.70;51.00;;;;;;5073888;28;20032;-55
2021/01/27 10:55:20;;;;;;;3.85;2.92;;;25.80;50.70;;;;;;5055902;28;20033;-56
2021/01/27 10:57:47;;;;;;;3.83;2.13;;;25.90;50.60;;;;;;5065647;28;20032;-55
2021/01/27 11:00:17;;;;;;;14.73;12.25;;;26.00;50.40;;;;;;5074068;28;20413;-55
2021/01/27 11:02:44;;;;;;;9.38;7.82;;;26.10;50.00;;;;;;5073011;28;20036;-57
2021/01/27 11:05:11;;;;;;;5.13;4.47;;;26.30;49.90;;;;;;5073531;28;20028;-57
2021/01/27 11:07:37;;;;;;;3.50;2.70;;;26.40;49.60;;;;;;5072344;28;20032;-56
2021/01/27 11:10:04;;;;;;;4.00;1.92;;;26.60;49.70;;;;;;5073784;28;20024;-56
2021/01/27 11:12:32;;;;;;;2.10;1.30;;;26.70;49.50;;;;;;5073659;28;20486;-56
2021/01/27 11:14:58;;;;;;;3.17;1.38;;;26.90;49.30;;;;;;5055522;28;20075;-56
2021/01/27 11:17:24;;;;;;;1.05;0.80;;;27.10;49.20;;;;;;5073536;28;20028;-56
2021/01/27 11:19:50;;;;;;;1.38;1.27;;;27.30;48.70;;;;;;5073261;28;20047;-56
2021/01/27 11:22:16;;;;;;;52.75;47.25;;;27.50;48.20;;;;;;5053529;28;20121;-56
2021/01/27 11:24:42;;;;;;;42.85;38.45;;;27.70;48.00;;;;;;5053478;28;20036;-56
2021/01/27 11:27:08;;;;;;;14.77;12.73;;;27.90;47.40;;;;;;5053469;28;20037;-56
2021/01/27 11:29:34;;;;;;;9.40;6.80;;;28.10;46.80;;;;;;5054301;28;20437;-57
2021/01/27 11:32:00;;;;;;;4.85;3.45;;;28.20;46.10;;;;;;5051890;28;20071;-56
2021/01/27 11:34:26;;;;;;;3.45;2.67;;;28.40;45.80;;;;;;5053028;28;20082;-57
2021/01/27 11:36:52;;;;;;;9.27;6.65;;;28.50;45.50;;;;;;5053254;28;20470;-57
2021/01/27 11:39:18;;;;;;;17.23;12.80;;;28.60;45.50;;;;;;5035210;28;20482;-57
2021/01/27 11:41:44;;;;;;;12.30;8.85;;;28.70;45.50;;;;;;5053328;28;20433;-57
2021/01/27 11:44:10;;;;;;;5.82;5.03;;;28.80;45.50;;;;;;5052985;28;20025;-57
2021/01/27 11:46:36;;;;;;;3.60;2.72;;;28.90;45.10;;;;;;5053217;28;20029;-57
2021/01/27 11:49:04;;;;;;;2.22;1.85;;;29.00;44.90;;;;;;5052801;28;20037;-57
2021/01/27 11:51:30;;;;;;;2.20;1.30;;;29.10;44.70;;;;;;5035327;28;20503;-56
2021/01/27 11:53:56;;;;;;;2.33;1.55;;;29.30;44.80;;;;;;5035150;28;20102;-57
2021/01/27 11:56:22;;;;;;;0.80;0.80;;;29.50;44.60;;;;;;5018849;28;20037;-57
2021/01/27 11:58:48;;;;;;;4.80;4.40;;;29.70;44.30;;;;;;5034732;28;20109;-57
2021/01/27 12:01:14;;;;;;;8.30;7.43;;;29.90;43.90;;;;;;5045643;28;20055;-58
2021/01/27 12:03:40;;;;;;;4.22;3.58;;;30.20;43.30;;;;;;5072191;28;20060;-57
2021/01/27 12:06:06;;;;;;;24.08;21.98;;;30.50;43.20;;;;;;5072269;28;20017;-57
2021/01/27 12:08:32;;;;;;;31.73;28.83;;;30.80;42.80;;;;;;5072071;28;20029;-57
2021/01/27 12:10:58;;;;;;;20.23;18.33;;;31.10;42.10;;;;;;5054582;28;20052;-57
2021/01/27 12:13:24;;;;;;;14.68;13.48;;;31.40;42.00;;;;;;5072314;28;20029;-57
2021/01/27 12:15:52;;;;;;;11.93;10.93;;;31.70;41.60;;;;;;5072390;28;20074;-58
2021/01/27 12:18:18;;;;;;;9.05;7.30;;;32.10;41.10;;;;;;5072398;28;20210;-57
2021/01/27 12:20:46;;;;;;;5.30;4.80;;;32.40;40.60;;;;;;5054116;28;20098;-58
2021/01/27 12:23:13;;;;;;;3.42;3.13;;;32.80;39.90;;;;;;5037678;28;20038;-58
2021/01/27 12:25:40;;;;;;;2.60;2.10;;;33.20;39.30;;;;;;5053990;28;20488;-58
2021/01/27 12:28:06;;;;;;;2.15;2.00;;;33.50;38.90;;;;;;5072088;28;20039;-58
2021/01/27 12:30:32;;;;;;;2.40;2.15;;;33.80;38.90;;;;;;5071041;28;20027;-59
2021/01/27 12:32:58;;;;;;;5.30;1.90;;;34.10;38.30;;;;;;5070287;28;20028;-57
2021/01/27 12:35:24;;;;;;;2.70;1.80;;;34.40;37.80;;;;;;5068898;28;20032;-56
2021/01/27 12:37:51;;;;;;;2.97;1.75;;;34.60;37.20;;;;;;5054528;28;20385;-57
2021/01/27 12:40:20;;;;;;;2.50;1.58;;;34.70;36.50;;;;;;5071389;28;20079;-56
2021/01/27 12:42:46;;;;;;;2.05;1.30;;;34.70;35.80;;;;;;5051231;28;20377;-56
2021/01/27 12:45:14;;;;;;;9.18;1.40;;;34.70;36.00;;;;;;5044618;28;20029;-57
2021/01/27 12:47:40;;;;;;;2.80;1.27;;;34.60;35.90;;;;;;5069598;28;20044;-58
2021/01/27 12:50:09;;;;;;;1.20;1.10;;;34.40;36.10;;;;;;5053738;28;20041;-55
2021/01/27 12:52:36;;;;;;;2.17;1.10;;;34.30;36.10;;;;;;5071910;28;20111;-56
2021/01/27 12:55:03;;;;;;;1.13;0.90;;;34.00;36.40;;;;;;5071564;28;20048;-56
2021/01/27 12:57:29;;;;;;;1.23;0.82;;;33.90;36.70;;;;;;5051963;28;20024;-56
2021/01/27 12:59:55;;;;;;;1.50;0.82;;;33.70;36.90;;;;;;5056961;28;20554;-55
2021/01/27 13:02:21;;;;;;;1.23;1.02;;;33.50;37.10;;;;;;5062825;28;20107;-56
2021/01/27 13:04:47;;;;;;;1.25;1.10;;;33.30;37.20;;;;;;5057519;28;20512;-57
2021/01/27 13:07:12;;;;;;;1.13;0.80;;;33.20;37.40;;;;;;5071579;28;20036;-56
2021/01/27 13:09:38;;;;;;;1.73;0.95;;;33.00;37.70;;;;;;5070427;28;20028;-56
2021/01/27 13:12:05;;;;;;;1.33;1.08;;;32.90;38.00;;;;;;5070902;28;20494;-56
2021/01/27 13:14:31;;;;;;;1.10;1.00;;;32.80;38.00;;;;;;5053629;28;20116;-56
2021/01/27 13:16:57;;;;;;;2.28;1.13;;;32.70;38.20;;;;;;5071310;28;20115;-57